Thunder radar more information blitzortung!


Rain radar more information rain snow radar


Equipment we use:

Davis VP2

Weather Display

BareMetal


Nearby METAR Reports

   
CYAZ - Tofino, BC
Updated: 08-19-2017 18:00
NOT Current
Few Clouds  
Few Clouds  
   Wind: West 25.9 km/h
Wind: West 25.9 km/h
Temperature: 17°C
Dew Point: 12°C
Humidity: 73%
Barometer: 1022.4 hPa
Clouds: Few Clouds
Visibility: 24 km
Cloud details: Few Clouds 4876.8 m,
Few Clouds 7010.4 m
CYAZ 200100Z 28014KT 15SM FEW160 FEW230 17/12 A3019 RMK AC1CI1 OCNL GUSTS LAST STFD OBS/NEXT 201300UTC SLP224
CYHE - Hope,BC
Updated: 08-19-2017 20:00
Clear  
Clear  
   Wind: WNW 16.7 km/h<br />Gust to 16.7 km/h
Wind: WNW 16.7 km/h
Gust to 16.7 km/h
Temperature: 21°C
Dew Point: 10°C
Humidity: 50%
Barometer: 1019 hPa
Clouds: Clear
Visibility: 15 km
Cloud details: Clear
CYHE 200300Z AUTO 30009G15KT 260V340 9SM CLR 21/10 A3009 RMK SLP190 DENSITY ALT 600FT
CYYT - St. John's, NL
Updated: 08-19-2017 20:00
Clear  
Clear  
   Wind: SSW 13 km/h
Wind: SSW 13 km/h
Temperature: 8°C
Wind Chill: 6°C
Dew Point: 7°C
Humidity: 93%
Barometer: 1022.7 hPa
Clouds: Clear
Visibility: 24 km
Cloud details: Clear
CYYT 200300Z 21007KT 15SM SKC 08/07 A3020 RMK SLP232

Script developed by  Saratoga-weather.org Adapted for the template by  Weerstation Leuven